sensor_id;sensor_type;location;lat;lon;timestamp;P1;durP1;ratioP1;P2;durP2;ratioP2
30173;SDS011;16985;50.814;8.530;2022-12-29T00:00:06;3.28;;;2.45;;
30173;SDS011;16985;50.814;8.530;2022-12-29T00:02:42;3.55;;;3.20;;
30173;SDS011;16985;50.814;8.530;2022-12-29T00:05:08;4.05;;;2.83;;
30173;SDS011;16985;50.814;8.530;2022-12-29T00:07:34;4.13;;;2.45;;
30173;SDS011;16985;50.814;8.530;2022-12-29T00:10:00;6.07;;;2.83;;
30173;SDS011;16985;50.814;8.530;2022-12-29T00:12:29;4.40;;;2.28;;
30173;SDS011;16985;50.814;8.530;2022-12-29T00:15:15;4.72;;;2.95;;
30173;SDS011;16985;50.814;8.530;2022-12-29T00:17:59;3.08;;;2.60;;
30173;SDS011;16985;50.814;8.530;2022-12-29T00:20:25;4.00;;;2.80;;
30173;SDS011;16985;50.814;8.530;2022-12-29T00:23:10;4.07;;;2.22;;
30173;SDS011;16985;50.814;8.530;2022-12-29T00:25:55;6.38;;;2.47;;
30173;SDS011;16985;50.814;8.530;2022-12-29T00:28:39;3.72;;;2.20;;
30173;SDS011;16985;50.814;8.530;2022-12-29T00:31:24;4.40;;;2.63;;
30173;SDS011;16985;50.814;8.530;2022-12-29T00:34:10;4.30;;;2.28;;
30173;SDS011;16985;50.814;8.530;2022-12-29T00:36:55;1.73;;;1.63;;
30173;SDS011;16985;50.814;8.530;2022-12-29T00:39:21;4.80;;;2.10;;
30173;SDS011;16985;50.814;8.530;2022-12-29T00:42:06;6.63;;;2.63;;
30173;SDS011;16985;50.814;8.530;2022-12-29T00:44:52;2.92;;;2.15;;
30173;SDS011;16985;50.814;8.530;2022-12-29T00:47:18;3.50;;;2.00;;
30173;SDS011;16985;50.814;8.530;2022-12-29T00:49:44;4.07;;;2.10;;
30173;SDS011;16985;50.814;8.530;2022-12-29T00:52:11;6.32;;;2.65;;
30173;SDS011;16985;50.814;8.530;2022-12-29T00:54:39;3.28;;;2.15;;
30173;SDS011;16985;50.814;8.530;2022-12-29T00:57:07;2.05;;;1.85;;
30173;SDS011;16985;50.814;8.530;2022-12-29T01:02:01;4.50;;;1.90;;
30173;SDS011;16985;50.814;8.530;2022-12-29T01:04:28;2.90;;;1.77;;
30173;SDS011;16985;50.814;8.530;2022-12-29T01:06:54;1.95;;;1.67;;
30173;SDS011;16985;50.814;8.530;2022-12-29T01:09:20;2.97;;;2.30;;
30173;SDS011;16985;50.814;8.530;2022-12-29T01:12:05;2.72;;;1.98;;
30173;SDS011;16985;50.814;8.530;2022-12-29T01:14:32;2.25;;;1.90;;
30173;SDS011;16985;50.814;8.530;2022-12-29T01:16:58;2.40;;;2.00;;
30173;SDS011;16985;50.814;8.530;2022-12-29T01:19:24;3.00;;;2.08;;
30173;SDS011;16985;50.814;8.530;2022-12-29T01:21:50;5.28;;;1.92;;
30173;SDS011;16985;50.814;8.530;2022-12-29T01:24:18;6.38;;;2.05;;
30173;SDS011;16985;50.814;8.530;2022-12-29T01:26:45;5.68;;;1.83;;
30173;SDS011;16985;50.814;8.530;2022-12-29T01:29:12;1.95;;;1.77;;
30173;SDS011;16985;50.814;8.530;2022-12-29T01:31:38;1.95;;;1.73;;
30173;SDS011;16985;50.814;8.530;2022-12-29T01:34:04;2.28;;;1.90;;
30173;SDS011;16985;50.814;8.530;2022-12-29T01:36:31;3.70;;;2.08;;
30173;SDS011;16985;50.814;8.530;2022-12-29T01:38:57;9.13;;;2.28;;
30173;SDS011;16985;50.814;8.530;2022-12-29T01:41:23;2.17;;;1.73;;
30173;SDS011;16985;50.814;8.530;2022-12-29T01:43:51;2.40;;;1.70;;
30173;SDS011;16985;50.814;8.530;2022-12-29T01:46:25;3.05;;;2.00;;
30173;SDS011;16985;50.814;8.530;2022-12-29T01:54:02;3.60;;;1.60;;
30173;SDS011;16985;50.814;8.530;2022-12-29T01:56:31;2.28;;;1.80;;
30173;SDS011;16985;50.814;8.530;2022-12-29T01:59:00;2.95;;;1.77;;
30173;SDS011;16985;50.814;8.530;2022-12-29T02:01:31;2.75;;;2.35;;
30173;SDS011;16985;50.814;8.530;2022-12-29T02:03:59;4.15;;;1.98;;
30173;SDS011;16985;50.814;8.530;2022-12-29T02:06:28;3.17;;;2.15;;
30173;SDS011;16985;50.814;8.530;2022-12-29T02:09:07;3.65;;;1.77;;
30173;SDS011;16985;50.814;8.530;2022-12-29T02:11:33;1.83;;;1.63;;
30173;SDS011;16985;50.814;8.530;2022-12-29T02:14:01;2.35;;;1.67;;
30173;SDS011;16985;50.814;8.530;2022-12-29T02:23:08;2.38;;;2.15;;
30173;SDS011;16985;50.814;8.530;2022-12-29T02:35:23;2.10;;;1.77;;
30173;SDS011;16985;50.814;8.530;2022-12-29T02:49:14;3.85;;;1.50;;
30173;SDS011;16985;50.814;8.530;2022-12-29T02:54:32;2.80;;;1.80;;
30173;SDS011;16985;50.814;8.530;2022-12-29T02:57:12;2.65;;;1.88;;
30173;SDS011;16985;50.814;8.530;2022-12-29T02:59:57;2.03;;;1.70;;
30173;SDS011;16985;50.814;8.530;2022-12-29T03:11:33;2.00;;;1.50;;
30173;SDS011;16985;50.814;8.530;2022-12-29T03:14:35;2.60;;;2.10;;
30173;SDS011;16985;50.814;8.530;2022-12-29T03:18:02;3.17;;;1.80;;
30173;SDS011;16985;50.814;8.530;2022-12-29T03:20:52;2.40;;;1.55;;
30173;SDS011;16985;50.814;8.530;2022-12-29T03:23:28;3.08;;;2.25;;
30173;SDS011;16985;50.814;8.530;2022-12-29T03:25:58;2.30;;;1.42;;
30173;SDS011;16985;50.814;8.530;2022-12-29T03:28:32;2.88;;;1.70;;
30173;SDS011;16985;50.814;8.530;2022-12-29T03:31:13;5.53;;;1.63;;
30173;SDS011;16985;50.814;8.530;2022-12-29T03:33:41;2.03;;;1.50;;
30173;SDS011;16985;50.814;8.530;2022-12-29T03:36:10;1.90;;;1.70;;
30173;SDS011;16985;50.814;8.530;2022-12-29T03:38:47;2.63;;;1.40;;
30173;SDS011;16985;50.814;8.530;2022-12-29T03:41:26;2.70;;;1.50;;
30173;SDS011;16985;50.814;8.530;2022-12-29T03:43:57;1.73;;;1.48;;
30173;SDS011;16985;50.814;8.530;2022-12-29T03:46:23;1.70;;;1.60;;
30173;SDS011;16985;50.814;8.530;2022-12-29T03:48:49;3.60;;;1.40;;
30173;SDS011;16985;50.814;8.530;2022-12-29T03:51:14;1.60;;;1.50;;
30173;SDS011;16985;50.814;8.530;2022-12-29T03:53:40;1.50;;;1.40;;
30173;SDS011;16985;50.814;8.530;2022-12-29T03:56:07;1.38;;;1.25;;
30173;SDS011;16985;50.814;8.530;2022-12-29T03:58:32;1.42;;;1.33;;
30173;SDS011;16985;50.814;8.530;2022-12-29T04:01:05;3.22;;;1.30;;
30173;SDS011;16985;50.814;8.530;2022-12-29T04:05:59;1.40;;;1.20;;
30173;SDS011;16985;50.814;8.530;2022-12-29T04:08:26;1.48;;;1.38;;
30173;SDS011;16985;50.814;8.530;2022-12-29T04:10:52;1.33;;;1.10;;
30173;SDS011;16985;50.814;8.530;2022-12-29T04:13:20;1.20;;;1.10;;
30173;SDS011;16985;50.814;8.530;2022-12-29T04:15:46;1.35;;;1.25;;
30173;SDS011;16985;50.814;8.530;2022-12-29T04:18:12;2.35;;;1.40;;
30173;SDS011;16985;50.814;8.530;2022-12-29T04:20:38;2.53;;;1.30;;
30173;SDS011;16985;50.814;8.530;2022-12-29T04:23:23;1.10;;;1.00;;
30173;SDS011;16985;50.814;8.530;2022-12-29T04:25:49;1.10;;;1.00;;
30173;SDS011;16985;50.814;8.530;2022-12-29T04:28:15;1.45;;;1.00;;
30173;SDS011;16985;50.814;8.530;2022-12-29T04:31:02;2.03;;;1.10;;
30173;SDS011;16985;50.814;8.530;2022-12-29T04:33:33;1.10;;;1.00;;
30173;SDS011;16985;50.814;8.530;2022-12-29T04:36:00;2.10;;;1.02;;
30173;SDS011;16985;50.814;8.530;2022-12-29T04:38:26;1.15;;;1.05;;
30173;SDS011;16985;50.814;8.530;2022-12-29T04:40:53;1.17;;;1.08;;
30173;SDS011;16985;50.814;8.530;2022-12-29T04:43:22;1.83;;;1.20;;
30173;SDS011;16985;50.814;8.530;2022-12-29T04:46:06;2.05;;;1.38;;
30173;SDS011;16985;50.814;8.530;2022-12-29T04:48:58;1.20;;;1.00;;
30173;SDS011;16985;50.814;8.530;2022-12-29T04:51:50;1.20;;;1.10;;
30173;SDS011;16985;50.814;8.530;2022-12-29T04:54:16;3.67;;;1.20;;
30173;SDS011;16985;50.814;8.530;2022-12-29T04:56:47;1.50;;;1.13;;
30173;SDS011;16985;50.814;8.530;2022-12-29T04:59:15;1.30;;;1.20;;
30173;SDS011;16985;50.814;8.530;2022-12-29T05:01:42;2.23;;;1.37;;
30173;SDS011;16985;50.814;8.530;2022-12-29T05:04:08;1.77;;;1.65;;
30173;SDS011;16985;50.814;8.530;2022-12-29T05:06:34;1.17;;;1.10;;
30173;SDS011;16985;50.814;8.530;2022-12-29T05:09:00;1.10;;;1.00;;
30173;SDS011;16985;50.814;8.530;2022-12-29T05:11:27;1.52;;;1.42;;
30173;SDS011;16985;50.814;8.530;2022-12-29T05:13:53;1.27;;;1.15;;
30173;SDS011;16985;50.814;8.530;2022-12-29T05:16:20;2.15;;;1.52;;
30173;SDS011;16985;50.814;8.530;2022-12-29T05:18:46;1.40;;;1.30;;
30173;SDS011;16985;50.814;8.530;2022-12-29T05:21:13;1.30;;;1.20;;
30173;SDS011;16985;50.814;8.530;2022-12-29T05:23:40;1.42;;;1.33;;
30173;SDS011;16985;50.814;8.530;2022-12-29T05:26:06;2.53;;;1.15;;
30173;SDS011;16985;50.814;8.530;2022-12-29T05:28:44;7.05;;;1.33;;
30173;SDS011;16985;50.814;8.530;2022-12-29T05:31:14;1.42;;;1.30;;
30173;SDS011;16985;50.814;8.530;2022-12-29T05:33:40;1.25;;;1.15;;
30173;SDS011;16985;50.814;8.530;2022-12-29T05:36:06;1.88;;;1.42;;
30173;SDS011;16985;50.814;8.530;2022-12-29T05:38:36;1.40;;;1.30;;
30173;SDS011;16985;50.814;8.530;2022-12-29T05:41:02;1.70;;;1.15;;
30173;SDS011;16985;50.814;8.530;2022-12-29T05:43:46;1.30;;;1.20;;
30173;SDS011;16985;50.814;8.530;2022-12-29T05:46:26;2.00;;;1.02;;
30173;SDS011;16985;50.814;8.530;2022-12-29T05:49:19;2.60;;;1.30;;
30173;SDS011;16985;50.814;8.530;2022-12-29T05:52:03;0.90;;;0.90;;
30173;SDS011;16985;50.814;8.530;2022-12-29T05:54:31;2.13;;;1.23;;
30173;SDS011;16985;50.814;8.530;2022-12-29T05:56:57;1.33;;;0.80;;
30173;SDS011;16985;50.814;8.530;2022-12-29T05:59:23;1.33;;;1.00;;
30173;SDS011;16985;50.814;8.530;2022-12-29T06:01:51;3.65;;;1.30;;
30173;SDS011;16985;50.814;8.530;2022-12-29T06:04:17;1.10;;;1.00;;
30173;SDS011;16985;50.814;8.530;2022-12-29T06:06:42;1.38;;;0.98;;
30173;SDS011;16985;50.814;8.530;2022-12-29T06:09:16;1.42;;;0.90;;
30173;SDS011;16985;50.814;8.530;2022-12-29T06:11:42;1.13;;;1.02;;
30173;SDS011;16985;50.814;8.530;2022-12-29T06:14:08;1.25;;;1.10;;
30173;SDS011;16985;50.814;8.530;2022-12-29T06:16:34;1.15;;;0.95;;
30173;SDS011;16985;50.814;8.530;2022-12-29T06:19:03;1.30;;;1.20;;
30173;SDS011;16985;50.814;8.530;2022-12-29T06:21:29;2.72;;;1.67;;
30173;SDS011;16985;50.814;8.530;2022-12-29T06:23:57;1.20;;;1.10;;
30173;SDS011;16985;50.814;8.530;2022-12-29T06:26:23;2.30;;;1.50;;
30173;SDS011;16985;50.814;8.530;2022-12-29T06:28:50;2.90;;;1.33;;
30173;SDS011;16985;50.814;8.530;2022-12-29T06:31:15;2.15;;;1.50;;
30173;SDS011;16985;50.814;8.530;2022-12-29T06:33:41;1.92;;;1.50;;
30173;SDS011;16985;50.814;8.530;2022-12-29T06:36:07;3.22;;;1.77;;
30173;SDS011;16985;50.814;8.530;2022-12-29T06:38:33;2.60;;;1.55;;
30173;SDS011;16985;50.814;8.530;2022-12-29T06:41:00;2.17;;;1.70;;
30173;SDS011;16985;50.814;8.530;2022-12-29T06:43:58;1.58;;;1.45;;
30173;SDS011;16985;50.814;8.530;2022-12-29T06:46:44;5.07;;;1.50;;
30173;SDS011;16985;50.814;8.530;2022-12-29T06:49:09;1.67;;;1.50;;
30173;SDS011;16985;50.814;8.530;2022-12-29T06:51:35;3.35;;;1.83;;
30173;SDS011;16985;50.814;8.530;2022-12-29T06:54:01;5.03;;;1.67;;
30173;SDS011;16985;50.814;8.530;2022-12-29T06:56:27;2.40;;;1.40;;
30173;SDS011;16985;50.814;8.530;2022-12-29T06:58:53;1.67;;;1.42;;
30173;SDS011;16985;50.814;8.530;2022-12-29T07:01:18;2.38;;;1.85;;
30173;SDS011;16985;50.814;8.530;2022-12-29T07:03:44;4.25;;;2.05;;
30173;SDS011;16985;50.814;8.530;2022-12-29T07:06:10;3.03;;;1.70;;
30173;SDS011;16985;50.814;8.530;2022-12-29T07:08:36;2.38;;;1.73;;
30173;SDS011;16985;50.814;8.530;2022-12-29T07:11:01;2.47;;;1.88;;
30173;SDS011;16985;50.814;8.530;2022-12-29T07:13:27;3.55;;;1.63;;
30173;SDS011;16985;50.814;8.530;2022-12-29T07:15:53;3.53;;;2.05;;
30173;SDS011;16985;50.814;8.530;2022-12-29T07:18:19;2.67;;;2.10;;
30173;SDS011;16985;50.814;8.530;2022-12-29T07:20:45;2.97;;;2.10;;
30173;SDS011;16985;50.814;8.530;2022-12-29T07:23:10;3.58;;;1.92;;
30173;SDS011;16985;50.814;8.530;2022-12-29T07:25:37;6.95;;;2.03;;
30173;SDS011;16985;50.814;8.530;2022-12-29T07:28:05;2.75;;;2.00;;
30173;SDS011;16985;50.814;8.530;2022-12-29T07:30:31;2.38;;;1.92;;
30173;SDS011;16985;50.814;8.530;2022-12-29T07:32:57;3.15;;;1.80;;
30173;SDS011;16985;50.814;8.530;2022-12-29T07:35:23;2.20;;;1.80;;
30173;SDS011;16985;50.814;8.530;2022-12-29T07:37:49;4.07;;;1.90;;
30173;SDS011;16985;50.814;8.530;2022-12-29T07:40:15;2.25;;;1.90;;
30173;SDS011;16985;50.814;8.530;2022-12-29T07:42:41;2.22;;;1.85;;
30173;SDS011;16985;50.814;8.530;2022-12-29T07:45:08;4.47;;;1.75;;
30173;SDS011;16985;50.814;8.530;2022-12-29T07:47:57;5.07;;;1.65;;
30173;SDS011;16985;50.814;8.530;2022-12-29T07:50:23;2.50;;;1.80;;
30173;SDS011;16985;50.814;8.530;2022-12-29T07:52:49;2.05;;;1.55;;
30173;SDS011;16985;50.814;8.530;2022-12-29T07:55:15;2.83;;;1.80;;
30173;SDS011;16985;50.814;8.530;2022-12-29T07:57:41;2.05;;;1.85;;
30173;SDS011;16985;50.814;8.530;2022-12-29T08:00:08;4.93;;;2.22;;
30173;SDS011;16985;50.814;8.530;2022-12-29T08:02:38;12.60;;;3.00;;
30173;SDS011;16985;50.814;8.530;2022-12-29T08:05:04;3.03;;;2.15;;
30173;SDS011;16985;50.814;8.530;2022-12-29T08:07:30;2.55;;;1.75;;
30173;SDS011;16985;50.814;8.530;2022-12-29T08:09:56;4.25;;;2.08;;
30173;SDS011;16985;50.814;8.530;2022-12-29T08:12:22;2.15;;;1.83;;
30173;SDS011;16985;50.814;8.530;2022-12-29T08:14:48;2.05;;;1.60;;
30173;SDS011;16985;50.814;8.530;2022-12-29T08:17:14;3.15;;;1.90;;
30173;SDS011;16985;50.814;8.530;2022-12-29T08:19:40;1.65;;;1.42;;
30173;SDS011;16985;50.814;8.530;2022-12-29T08:22:07;1.20;;;0.93;;
30173;SDS011;16985;50.814;8.530;2022-12-29T08:24:33;1.25;;;1.08;;
30173;SDS011;16985;50.814;8.530;2022-12-29T08:26:59;1.50;;;0.80;;
30173;SDS011;16985;50.814;8.530;2022-12-29T08:29:25;1.73;;;1.00;;
30173;SDS011;16985;50.814;8.530;2022-12-29T08:31:50;1.05;;;0.95;;
30173;SDS011;16985;50.814;8.530;2022-12-29T08:34:16;1.38;;;1.10;;
30173;SDS011;16985;50.814;8.530;2022-12-29T08:36:42;1.02;;;0.90;;
30173;SDS011;16985;50.814;8.530;2022-12-29T08:39:08;1.92;;;1.20;;
30173;SDS011;16985;50.814;8.530;2022-12-29T08:41:34;1.23;;;1.10;;
30173;SDS011;16985;50.814;8.530;2022-12-29T08:43:59;1.40;;;1.30;;
30173;SDS011;16985;50.814;8.530;2022-12-29T08:46:25;2.28;;;1.20;;
30173;SDS011;16985;50.814;8.530;2022-12-29T08:48:51;1.83;;;1.33;;
30173;SDS011;16985;50.814;8.530;2022-12-29T08:51:18;1.40;;;1.15;;
30173;SDS011;16985;50.814;8.530;2022-12-29T08:53:44;0.90;;;0.88;;
30173;SDS011;16985;50.814;8.530;2022-12-29T08:56:10;2.05;;;1.38;;
30173;SDS011;16985;50.814;8.530;2022-12-29T08:58:45;1.40;;;1.05;;
30173;SDS011;16985;50.814;8.530;2022-12-29T09:01:11;2.00;;;1.20;;
30173;SDS011;16985;50.814;8.530;2022-12-29T09:03:37;3.70;;;1.20;;
30173;SDS011;16985;50.814;8.530;2022-12-29T09:06:03;1.13;;;1.00;;
30173;SDS011;16985;50.814;8.530;2022-12-29T09:08:29;1.92;;;0.93;;
30173;SDS011;16985;50.814;8.530;2022-12-29T09:10:54;1.95;;;1.20;;
30173;SDS011;16985;50.814;8.530;2022-12-29T09:13:20;2.45;;;1.10;;
30173;SDS011;16985;50.814;8.530;2022-12-29T09:15:46;3.55;;;1.05;;
30173;SDS011;16985;50.814;8.530;2022-12-29T09:18:12;3.20;;;1.52;;
30173;SDS011;16985;50.814;8.530;2022-12-29T09:20:38;0.80;;;0.75;;
30173;SDS011;16985;50.814;8.530;2022-12-29T09:23:03;1.17;;;1.08;;
30173;SDS011;16985;50.814;8.530;2022-12-29T09:25:31;2.80;;;1.00;;
30173;SDS011;16985;50.814;8.530;2022-12-29T09:27:57;2.72;;;1.08;;
30173;SDS011;16985;50.814;8.530;2022-12-29T09:30:23;2.10;;;1.50;;
30173;SDS011;16985;50.814;8.530;2022-12-29T09:32:49;2.47;;;1.50;;
30173;SDS011;16985;50.814;8.530;2022-12-29T09:35:16;3.00;;;1.45;;
30173;SDS011;16985;50.814;8.530;2022-12-29T09:37:42;5.25;;;1.58;;
30173;SDS011;16985;50.814;8.530;2022-12-29T09:40:25;2.42;;;1.33;;
30173;SDS011;16985;50.814;8.530;2022-12-29T09:43:13;1.88;;;1.30;;
30173;SDS011;16985;50.814;8.530;2022-12-29T09:45:52;1.40;;;1.30;;
30173;SDS011;16985;50.814;8.530;2022-12-29T09:48:49;2.95;;;1.65;;
30173;SDS011;16985;50.814;8.530;2022-12-29T09:51:40;1.88;;;1.08;;
30173;SDS011;16985;50.814;8.530;2022-12-29T09:56:52;4.15;;;1.20;;
30173;SDS011;16985;50.814;8.530;2022-12-29T09:59:22;3.28;;;1.00;;
30173;SDS011;16985;50.814;8.530;2022-12-29T10:02:12;2.60;;;1.35;;
30173;SDS011;16985;50.814;8.530;2022-12-29T10:05:03;5.72;;;1.38;;
30173;SDS011;16985;50.814;8.530;2022-12-29T10:16:50;2.25;;;1.23;;
30173;SDS011;16985;50.814;8.530;2022-12-29T10:23:02;3.65;;;1.98;;
30173;SDS011;16985;50.814;8.530;2022-12-29T10:31:11;3.35;;;1.40;;
30173;SDS011;16985;50.814;8.530;2022-12-29T10:33:45;4.32;;;1.17;;
30173;SDS011;16985;50.814;8.530;2022-12-29T10:36:16;3.50;;;1.20;;
30173;SDS011;16985;50.814;8.530;2022-12-29T10:41:56;2.80;;;1.30;;
30173;SDS011;16985;50.814;8.530;2022-12-29T10:44:34;3.92;;;1.35;;
30173;SDS011;16985;50.814;8.530;2022-12-29T10:47:04;3.35;;;1.70;;
30173;SDS011;16985;50.814;8.530;2022-12-29T10:49:39;4.18;;;1.50;;
30173;SDS011;16985;50.814;8.530;2022-12-29T10:52:08;4.00;;;1.77;;
30173;SDS011;16985;50.814;8.530;2022-12-29T10:54:42;3.85;;;1.75;;
30173;SDS011;16985;50.814;8.530;2022-12-29T11:00:10;5.35;;;1.60;;
30173;SDS011;16985;50.814;8.530;2022-12-29T11:11:10;3.45;;;1.70;;
30173;SDS011;16985;50.814;8.530;2022-12-29T11:13:55;3.65;;;2.22;;
30173;SDS011;16985;50.814;8.530;2022-12-29T11:16:29;3.10;;;1.48;;
30173;SDS011;16985;50.814;8.530;2022-12-29T11:18:59;4.70;;;1.85;;
30173;SDS011;16985;50.814;8.530;2022-12-29T11:21:33;3.95;;;1.35;;
30173;SDS011;16985;50.814;8.530;2022-12-29T11:24:26;3.95;;;1.65;;
30173;SDS011;16985;50.814;8.530;2022-12-29T11:29:51;5.53;;;1.80;;
30173;SDS011;16985;50.814;8.530;2022-12-29T11:34:57;3.50;;;1.52;;
30173;SDS011;16985;50.814;8.530;2022-12-29T11:37:28;3.45;;;1.50;;
30173;SDS011;16985;50.814;8.530;2022-12-29T11:40:03;3.67;;;1.17;;
30173;SDS011;16985;50.814;8.530;2022-12-29T11:42:51;2.25;;;1.30;;
30173;SDS011;16985;50.814;8.530;2022-12-29T11:45:19;4.38;;;1.48;;
30173;SDS011;16985;50.814;8.530;2022-12-29T11:48:01;3.95;;;1.38;;
30173;SDS011;16985;50.814;8.530;2022-12-29T11:50:42;2.63;;;1.13;;
30173;SDS011;16985;50.814;8.530;2022-12-29T11:55:57;2.97;;;1.63;;
30173;SDS011;16985;50.814;8.530;2022-12-29T11:58:31;4.18;;;1.45;;
30173;SDS011;16985;50.814;8.530;2022-12-29T12:01:00;3.25;;;1.20;;
30173;SDS011;16985;50.814;8.530;2022-12-29T12:03:31;1.30;;;1.05;;
30173;SDS011;16985;50.814;8.530;2022-12-29T12:06:03;2.08;;;1.52;;
30173;SDS011;16985;50.814;8.530;2022-12-29T12:11:16;6.30;;;1.45;;
30173;SDS011;16985;50.814;8.530;2022-12-29T12:14:11;3.42;;;1.52;;
30173;SDS011;16985;50.814;8.530;2022-12-29T12:17:12;2.03;;;1.42;;
30173;SDS011;16985;50.814;8.530;2022-12-29T12:19:46;5.22;;;2.55;;
30173;SDS011;16985;50.814;8.530;2022-12-29T12:22:48;4.68;;;1.23;;
30173;SDS011;16985;50.814;8.530;2022-12-29T12:26:00;3.95;;;1.38;;
30173;SDS011;16985;50.814;8.530;2022-12-29T12:28:37;4.80;;;1.52;;
30173;SDS011;16985;50.814;8.530;2022-12-29T12:31:19;4.75;;;1.58;;
30173;SDS011;16985;50.814;8.530;2022-12-29T12:34:21;4.00;;;1.30;;
30173;SDS011;16985;50.814;8.530;2022-12-29T12:39:44;5.03;;;1.40;;
30173;SDS011;16985;50.814;8.530;2022-12-29T12:42:58;3.42;;;1.30;;
30173;SDS011;16985;50.814;8.530;2022-12-29T12:55:18;6.00;;;1.67;;
30173;SDS011;16985;50.814;8.530;2022-12-29T12:57:59;3.58;;;1.52;;
30173;SDS011;16985;50.814;8.530;2022-12-29T13:01:05;2.75;;;1.20;;
30173;SDS011;16985;50.814;8.530;2022-12-29T13:21:34;7.60;;;1.50;;
30173;SDS011;16985;50.814;8.530;2022-12-29T13:27:44;4.03;;;2.00;;
30173;SDS011;16985;50.814;8.530;2022-12-29T13:30:26;8.05;;;2.38;;
30173;SDS011;16985;50.814;8.530;2022-12-29T13:33:06;8.77;;;2.55;;
30173;SDS011;16985;50.814;8.530;2022-12-29T13:36:04;3.95;;;1.25;;
30173;SDS011;16985;50.814;8.530;2022-12-29T13:38:40;3.75;;;1.67;;
30173;SDS011;16985;50.814;8.530;2022-12-29T13:41:14;4.18;;;1.45;;
30173;SDS011;16985;50.814;8.530;2022-12-29T13:44:01;8.95;;;2.22;;
30173;SDS011;16985;50.814;8.530;2022-12-29T13:46:33;4.05;;;2.17;;
30173;SDS011;16985;50.814;8.530;2022-12-29T13:49:08;7.60;;;1.65;;
30173;SDS011;16985;50.814;8.530;2022-12-29T13:57:03;7.90;;;1.83;;
30173;SDS011;16985;50.814;8.530;2022-12-29T13:59:49;4.50;;;1.60;;
30173;SDS011;16985;50.814;8.530;2022-12-29T14:05:37;5.88;;;1.38;;
30173;SDS011;16985;50.814;8.530;2022-12-29T14:08:04;6.53;;;1.70;;
30173;SDS011;16985;50.814;8.530;2022-12-29T14:10:48;6.10;;;1.60;;
30173;SDS011;16985;50.814;8.530;2022-12-29T14:13:16;5.00;;;1.50;;
30173;SDS011;16985;50.814;8.530;2022-12-29T14:15:51;5.88;;;1.73;;
30173;SDS011;16985;50.814;8.530;2022-12-29T14:18:23;5.95;;;2.05;;
30173;SDS011;16985;50.814;8.530;2022-12-29T14:23:52;4.85;;;1.80;;
30173;SDS011;16985;50.814;8.530;2022-12-29T14:28:56;5.63;;;1.60;;
30173;SDS011;16985;50.814;8.530;2022-12-29T14:34:51;4.33;;;1.63;;
30173;SDS011;16985;50.814;8.530;2022-12-29T14:42:43;9.88;;;1.95;;
30173;SDS011;16985;50.814;8.530;2022-12-29T14:47:40;6.03;;;1.80;;
30173;SDS011;16985;50.814;8.530;2022-12-29T14:50:15;8.63;;;3.03;;
30173;SDS011;16985;50.814;8.530;2022-12-29T14:52:50;8.68;;;2.53;;
30173;SDS011;16985;50.814;8.530;2022-12-29T14:58:17;8.90;;;2.08;;
30173;SDS011;16985;50.814;8.530;2022-12-29T15:00:53;4.90;;;1.98;;
30173;SDS011;16985;50.814;8.530;2022-12-29T15:05:57;8.30;;;2.10;;
30173;SDS011;16985;50.814;8.530;2022-12-29T15:08:32;3.97;;;2.08;;
30173;SDS011;16985;50.814;8.530;2022-12-29T15:11:04;5.50;;;1.98;;
30173;SDS011;16985;50.814;8.530;2022-12-29T15:14:01;8.95;;;2.50;;
30173;SDS011;16985;50.814;8.530;2022-12-29T15:18:59;9.77;;;2.33;;
30173;SDS011;16985;50.814;8.530;2022-12-29T15:21:26;8.80;;;2.05;;
30173;SDS011;16985;50.814;8.530;2022-12-29T15:23:55;5.55;;;1.67;;
30173;SDS011;16985;50.814;8.530;2022-12-29T15:26:21;6.28;;;1.50;;
30173;SDS011;16985;50.814;8.530;2022-12-29T15:28:48;13.57;;;2.40;;
30173;SDS011;16985;50.814;8.530;2022-12-29T15:31:17;6.45;;;1.70;;
30173;SDS011;16985;50.814;8.530;2022-12-29T15:33:48;7.70;;;3.10;;
30173;SDS011;16985;50.814;8.530;2022-12-29T15:36:20;6.68;;;1.75;;
30173;SDS011;16985;50.814;8.530;2022-12-29T15:38:52;10.48;;;1.80;;
30173;SDS011;16985;50.814;8.530;2022-12-29T15:41:26;8.93;;;2.10;;
30173;SDS011;16985;50.814;8.530;2022-12-29T15:44:39;7.32;;;1.98;;
30173;SDS011;16985;50.814;8.530;2022-12-29T15:47:26;15.00;;;4.28;;
30173;SDS011;16985;50.814;8.530;2022-12-29T15:50:55;7.20;;;2.03;;
30173;SDS011;16985;50.814;8.530;2022-12-29T15:52:59;7.75;;;2.17;;
30173;SDS011;16985;50.814;8.530;2022-12-29T15:55:34;3.92;;;1.88;;
30173;SDS011;16985;50.814;8.530;2022-12-29T15:58:04;8.10;;;2.03;;
30173;SDS011;16985;50.814;8.530;2022-12-29T16:00:45;9.90;;;1.88;;
30173;SDS011;16985;50.814;8.530;2022-12-29T16:03:31;9.32;;;2.10;;
30173;SDS011;16985;50.814;8.530;2022-12-29T16:06:09;6.50;;;3.03;;
30173;SDS011;16985;50.814;8.530;2022-12-29T16:11:33;6.97;;;2.70;;
30173;SDS011;16985;50.814;8.530;2022-12-29T16:14:07;7.63;;;3.58;;
30173;SDS011;16985;50.814;8.530;2022-12-29T16:16:40;7.97;;;2.28;;
30173;SDS011;16985;50.814;8.530;2022-12-29T16:19:19;5.93;;;2.33;;
30173;SDS011;16985;50.814;8.530;2022-12-29T16:21:54;5.53;;;1.90;;
30173;SDS011;16985;50.814;8.530;2022-12-29T16:24:23;12.38;;;2.22;;
30173;SDS011;16985;50.814;8.530;2022-12-29T16:26:56;4.70;;;2.03;;
30173;SDS011;16985;50.814;8.530;2022-12-29T16:29:31;4.65;;;2.47;;
30173;SDS011;16985;50.814;8.530;2022-12-29T16:31:58;7.07;;;1.73;;
30173;SDS011;16985;50.814;8.530;2022-12-29T16:42:56;9.95;;;2.08;;
30173;SDS011;16985;50.814;8.530;2022-12-29T16:46:06;5.75;;;2.10;;
30173;SDS011;16985;50.814;8.530;2022-12-29T16:48:24;12.48;;;2.58;;
30173;SDS011;16985;50.814;8.530;2022-12-29T16:51:00;4.05;;;1.67;;
30173;SDS011;16985;50.814;8.530;2022-12-29T16:53:35;11.80;;;2.37;;
30173;SDS011;16985;50.814;8.530;2022-12-29T16:56:06;6.25;;;1.83;;
30173;SDS011;16985;50.814;8.530;2022-12-29T16:59:00;10.52;;;2.20;;
30173;SDS011;16985;50.814;8.530;2022-12-29T17:01:34;9.82;;;2.35;;
30173;SDS011;16985;50.814;8.530;2022-12-29T17:04:08;9.63;;;2.13;;
30173;SDS011;16985;50.814;8.530;2022-12-29T17:06:36;5.85;;;2.00;;
30173;SDS011;16985;50.814;8.530;2022-12-29T17:09:12;8.43;;;1.95;;
30173;SDS011;16985;50.814;8.530;2022-12-29T17:11:44;9.40;;;2.03;;
30173;SDS011;16985;50.814;8.530;2022-12-29T17:17:13;8.77;;;2.53;;
30173;SDS011;16985;50.814;8.530;2022-12-29T17:20:05;7.28;;;2.40;;
30173;SDS011;16985;50.814;8.530;2022-12-29T17:22:41;8.73;;;1.90;;
30173;SDS011;16985;50.814;8.530;2022-12-29T17:25:10;7.75;;;1.92;;
30173;SDS011;16985;50.814;8.530;2022-12-29T17:30:13;4.65;;;1.60;;
30173;SDS011;16985;50.814;8.530;2022-12-29T17:32:42;5.38;;;1.70;;
30173;SDS011;16985;50.814;8.530;2022-12-29T17:35:18;5.82;;;2.47;;
30173;SDS011;16985;50.814;8.530;2022-12-29T17:37:46;9.23;;;2.55;;
30173;SDS011;16985;50.814;8.530;2022-12-29T17:40:31;8.32;;;2.65;;
30173;SDS011;16985;50.814;8.530;2022-12-29T17:42:58;8.95;;;2.72;;
30173;SDS011;16985;50.814;8.530;2022-12-29T17:45:28;8.38;;;2.55;;
30173;SDS011;16985;50.814;8.530;2022-12-29T17:47:56;10.80;;;2.22;;
30173;SDS011;16985;50.814;8.530;2022-12-29T17:50:26;8.82;;;2.30;;
30173;SDS011;16985;50.814;8.530;2022-12-29T17:52:57;6.47;;;2.15;;
30173;SDS011;16985;50.814;8.530;2022-12-29T17:55:29;8.57;;;2.00;;
30173;SDS011;16985;50.814;8.530;2022-12-29T17:57:55;8.90;;;2.30;;
30173;SDS011;16985;50.814;8.530;2022-12-29T18:00:22;9.75;;;2.55;;
30173;SDS011;16985;50.814;8.530;2022-12-29T18:02:53;9.13;;;2.92;;
30173;SDS011;16985;50.814;8.530;2022-12-29T18:05:26;11.73;;;3.10;;
30173;SDS011;16985;50.814;8.530;2022-12-29T18:07:55;5.40;;;2.55;;
30173;SDS011;16985;50.814;8.530;2022-12-29T18:10:23;8.05;;;3.13;;
30173;SDS011;16985;50.814;8.530;2022-12-29T18:12:53;10.32;;;2.13;;
30173;SDS011;16985;50.814;8.530;2022-12-29T18:18:10;10.85;;;2.45;;
30173;SDS011;16985;50.814;8.530;2022-12-29T18:20:39;9.15;;;2.25;;
30173;SDS011;16985;50.814;8.530;2022-12-29T18:23:26;4.03;;;2.13;;